Time;durP1;ratioP1;P1;durP2;ratioP2;P2;SDS_P1;SDS_P2;PMS_P1;PMS_P2;Temp;Humidity;BMP_temperature;BMP_pressure;BME280_temperature;BME280_humidity;BME280_pressure;Samples;Min_cycle;Max_cycle;Signal;HPM_P1;HPM_P2
2020/12/27 04:36:35;;;;;;;10.65;6.70;;;;;;;-4.34;86.89;100110.77;1777000;79;22630;-69
2020/12/27 04:39:04;;;;;;;12.93;8.43;;;;;;;-4.38;86.92;100121.66;1749652;82;21075;-70
2020/12/27 04:41:34;;;;;;;9.75;7.00;;;;;;;-4.35;86.90;100123.42;1749087;82;21211;-69
2020/12/27 04:44:04;;;;;;;7.03;5.25;;;;;;;-4.31;87.03;100125.23;1749532;81;21062;-70
2020/12/27 04:46:31;;;;;;;6.62;5.17;;;;;;;-4.23;87.10;100131.41;1749605;82;20929;-70
2020/12/27 04:49:01;;;;;;;8.78;5.80;;;;;;;-4.12;87.12;100143.98;1749601;82;21139;-68
2020/12/27 04:51:31;;;;;;;6.47;4.90;;;;;;;-4.00;87.03;100151.97;1748443;82;21154;-68
2020/12/27 04:54:00;;;;;;;7.53;5.00;;;;;;;-3.90;86.81;100148.84;1746020;82;21413;-68
2020/12/27 04:56:30;;;;;;;6.95;5.10;;;;;;;-3.82;86.54;100138.89;1747809;82;21025;-68
2020/12/27 04:59:03;;;;;;;8.13;5.60;;;;;;;-3.75;86.40;100133.13;1748072;82;21062;-68
2020/12/27 05:01:32;;;;;;;7.42;5.33;;;;;;;-3.68;86.15;100137.98;1749601;82;21072;-68
2020/12/27 05:04:07;;;;;;;5.78;5.10;;;;;;;-3.64;85.92;100144.87;1748875;82;21174;-68
2020/12/27 05:06:44;;;;;;;9.53;6.53;;;;;;;-3.57;85.74;100154.36;1748251;82;21227;-68
2020/12/27 05:09:14;;;;;;;8.23;5.60;;;;;;;-3.53;85.44;100154.48;1749569;82;21087;-69
2020/12/27 05:11:43;;;;;;;9.75;6.45;;;;;;;-3.52;85.20;100151.12;1749673;82;21476;-68
2020/12/27 05:14:13;;;;;;;6.65;5.37;;;;;;;-3.51;85.03;100154.11;1749087;82;20930;-69
2020/12/27 05:16:42;;;;;;;8.60;6.42;;;;;;;-3.48;84.84;100166.05;1720213;82;21099;-68
2020/12/27 05:19:11;;;;;;;8.20;5.28;;;;;;;-3.47;84.87;100168.64;1721623;82;21328;-69
2020/12/27 05:21:39;;;;;;;6.55;5.08;;;;;;;-3.45;84.60;100161.45;1668876;83;21571;-69
2020/12/27 05:24:23;;;;;;;8.85;6.03;;;;;;;-3.41;84.50;100164.12;1872951;75;22720;-70
2020/12/27 05:26:55;;;;;;;7.35;6.10;;;;;;;-3.45;84.43;100162.31;1839067;78;21058;-70
2020/12/27 05:29:33;;;;;;;8.28;6.25;;;;;;;-3.42;84.43;100171.71;1809592;78;21185;-70
2020/12/27 05:32:10;;;;;;;9.80;6.92;;;;;;;-3.41;84.20;100170.89;1837813;78;21376;-69
2020/12/27 05:34:58;;;;;;;10.08;6.87;;;;;;;-3.45;83.65;100171.63;1841594;77;21065;-70
2020/12/27 05:37:44;;;;;;;10.00;7.40;;;;;;;-3.54;83.55;100168.42;1841533;77;21473;-69
2020/12/27 05:40:36;;;;;;;8.98;6.00;;;;;;;-3.57;83.56;100177.23;1910159;74;23207;-70
2020/12/27 05:43:16;;;;;;;10.20;6.20;;;;;;;-3.62;83.69;100178.83;1849270;77;21639;-69
2020/12/27 05:45:46;;;;;;;9.83;6.67;;;;;;;-3.61;83.74;100180.55;1848140;77;21193;-70
2020/12/27 05:48:14;;;;;;;11.68;7.28;;;;;;;-3.60;83.51;100183.54;1849828;77;21208;-70
2020/12/27 05:50:42;;;;;;;8.88;7.42;;;;;;;-3.63;83.34;100185.59;1849839;77;20986;-70
2020/12/27 05:53:22;;;;;;;9.85;7.53;;;;;;;-3.63;83.35;100190.67;1849853;77;21037;-70
2020/12/27 05:55:53;;;;;;;12.58;6.95;;;;;;;-3.61;83.46;100197.94;1849172;77;21100;-70
2020/12/27 05:58:23;;;;;;;10.75;7.00;;;;;;;-3.60;83.22;100203.88;1849794;77;21350;-70
2020/12/27 06:00:54;;;;;;;11.43;8.15;;;;;;;-3.61;83.06;100203.02;1848851;77;21521;-70
2020/12/27 06:03:28;;;;;;;13.05;8.73;;;;;;;-3.62;83.05;100209.33;1849944;77;21525;-69
2020/12/27 06:06:10;;;;;;;64.32;31.40;;;;;;;-3.63;83.05;100211.42;1849953;77;21486;-69
2020/12/27 06:09:03;;;;;;;109.17;52.43;;;;;;;-3.60;83.08;100219.13;1849886;77;21164;-68
2020/12/27 06:11:48;;;;;;;50.10;25.15;;;;;;;-3.62;82.91;100214.41;1849858;77;21580;-69
2020/12/27 06:14:37;;;;;;;37.80;19.20;;;;;;;-3.62;82.94;100219.50;1820740;77;21080;-69
2020/12/27 06:17:50;;;;;;;38.33;19.35;;;;;;;-3.63;82.86;100224.99;1856381;75;21513;-70
2020/12/27 06:20:34;;;;;;;38.00;20.72;;;;;;;-3.62;82.67;100236.89;1788883;79;21060;-68
2020/12/27 06:23:04;;;;;;;29.25;17.12;;;;;;;-3.66;82.56;100240.56;1826343;78;21091;-68
2020/12/27 06:25:42;;;;;;;19.12;10.35;;;;;;;-3.59;82.92;100228.05;1873655;75;22670;-70
2020/12/27 06:28:11;;;;;;;15.95;10.40;;;;;;;-3.60;82.84;100225.49;1841624;77;21056;-70
2020/12/27 06:30:47;;;;;;;15.28;9.45;;;;;;;-3.59;82.93;100225.91;1839108;77;21193;-70
2020/12/27 06:33:21;;;;;;;;;;;;;;;-3.55;83.00;100230.27;1770737;78;21062;-70
2020/12/27 06:35:48;;;;;;;21.45;13.80;;;;;;;-3.50;83.01;100228.30;1841583;77;20166;-69
2020/12/27 06:38:24;;;;;;;19.40;17.32;;;;;;;-3.47;82.94;100232.20;1841557;77;21054;-69
2020/12/27 06:41:05;;;;;;;14.75;9.83;;;;;;;-3.42;82.90;100239.11;1839602;78;21526;-70
2020/12/27 06:43:58;;;;;;;12.78;9.85;;;;;;;-3.33;82.62;100252.05;1873657;75;22633;-70
2020/12/27 06:46:30;;;;;;;14.20;11.25;;;;;;;-3.38;82.49;100253.19;1841488;77;20927;-69
2020/12/27 06:49:14;;;;;;;14.03;10.30;;;;;;;-3.35;82.45;100256.23;1840902;77;21381;-70
2020/12/27 06:52:22;;;;;;;26.68;13.48;;;;;;;-3.31;82.54;100254.23;1841358;77;20907;-68
2020/12/27 06:55:00;;;;;;;21.73;15.20;;;;;;;-3.22;82.82;100260.84;1840319;78;21061;-69
2020/12/27 06:57:46;;;;;;;20.32;14.75;;;;;;;-3.16;82.62;100263.11;1840675;77;20919;-69
2020/12/27 07:00:29;;;;;;;21.82;16.27;;;;;;;-3.15;82.45;100264.84;1833988;78;21073;-70
2020/12/27 07:03:18;;;;;;;20.50;13.80;;;;;;;-3.14;82.55;100264.43;1840625;78;21133;-70
2020/12/27 07:05:49;;;;;;;23.45;14.60;;;;;;;-3.07;82.55;100278.19;1841568;77;20966;-70
2020/12/27 07:08:38;;;;;;;22.65;15.60;;;;;;;-3.00;82.58;100280.08;1841505;77;21041;-69
2020/12/27 07:11:07;;;;;;;18.52;11.43;;;;;;;-2.94;82.58;100284.03;1841494;77;21081;-70
2020/12/27 07:13:40;;;;;;;19.40;11.35;;;;;;;-2.91;82.61;100278.61;1841608;78;21136;-70
2020/12/27 07:16:10;;;;;;;16.35;10.90;;;;;;;-2.88;82.64;100282.52;1841582;78;21356;-69
2020/12/27 07:18:39;;;;;;;19.70;11.75;;;;;;;-2.81;82.82;100283.54;1818327;78;21489;-71
2020/12/27 07:21:13;;;;;;;17.00;9.90;;;;;;;-2.74;82.86;100283.25;1808546;79;21045;-70
2020/12/27 07:23:49;;;;;;;18.32;10.15;;;;;;;-2.69;82.84;100287.64;1808499;79;21610;-70
2020/12/27 07:26:16;;;;;;;15.28;9.73;;;;;;;-2.65;82.79;100281.81;1780798;79;21037;-70
2020/12/27 07:28:46;;;;;;;15.20;10.38;;;;;;;-2.62;82.80;100285.71;1808485;78;21192;-70
2020/12/27 07:31:17;;;;;;;16.67;10.68;;;;;;;-2.62;82.86;100285.71;1779461;79;21145;-70
2020/12/27 07:33:45;;;;;;;20.80;11.38;;;;;;;-2.62;82.91;100283.58;1808478;79;21109;-69
2020/12/27 07:36:13;;;;;;;15.85;11.83;;;;;;;-2.61;83.04;100279.80;1808410;78;21141;-70
2020/12/27 07:39:00;;;;;;;16.07;11.93;;;;;;;-2.55;83.19;100285.42;1808455;79;21105;-70
2020/12/27 07:41:30;;;;;;;17.37;12.63;;;;;;;-2.51;83.22;100284.68;1808491;79;21386;-69
2020/12/27 07:43:58;;;;;;;18.23;12.00;;;;;;;-2.45;83.37;100288.25;1813235;78;21080;-70
2020/12/27 07:46:27;;;;;;;16.65;11.88;;;;;;;-2.33;83.45;100285.52;1814227;78;21069;-70
2020/12/27 07:48:55;;;;;;;17.25;11.88;;;;;;;-2.26;83.32;100286.98;1814101;79;21053;-71
2020/12/27 07:51:24;;;;;;;20.25;12.78;;;;;;;-2.18;83.26;100282.05;1814166;79;21070;-69
2020/12/27 07:53:56;;;;;;;20.70;15.08;;;;;;;-2.14;83.36;100285.97;1786802;79;21439;-70
2020/12/27 07:56:27;;;;;;;22.60;16.07;;;;;;;-2.05;83.43;100292.98;1813560;79;21144;-70
2020/12/27 07:59:02;;;;;;;19.15;13.15;;;;;;;-1.95;83.44;100299.13;1813627;78;21065;-70
2020/12/27 08:01:34;;;;;;;21.42;13.90;;;;;;;-1.85;83.39;100297.23;1813584;78;21069;-70
2020/12/27 08:04:04;;;;;;;23.87;14.40;;;;;;;-1.77;83.23;100295.28;1813685;78;21096;-70
2020/12/27 08:06:35;;;;;;;24.12;15.30;;;;;;;-1.70;83.14;100304.34;1813643;79;21359;-70
2020/12/27 08:09:14;;;;;;;24.95;16.17;;;;;;;-1.62;83.29;100293.90;1812904;79;21140;-71
2020/12/27 08:11:43;;;;;;;19.87;14.63;;;;;;;-1.50;83.27;100297.96;1813650;79;21116;-70
2020/12/27 08:14:14;;;;;;;21.07;14.07;;;;;;;-1.36;83.18;100299.09;1813543;78;21600;-71
2020/12/27 08:16:42;;;;;;;18.30;14.10;;;;;;;-1.25;83.06;100300.17;1813565;79;21137;-71
2020/12/27 08:19:15;;;;;;;19.55;14.43;;;;;;;-1.14;82.76;100300.36;1813548;77;21370;-70
2020/12/27 08:21:46;;;;;;;17.70;13.18;;;;;;;-1.08;82.50;100304.31;1813608;78;21570;-69
2020/12/27 08:24:16;;;;;;;13.98;11.63;;;;;;;-1.02;82.48;100302.30;1812329;78;21128;-70
2020/12/27 08:26:48;;;;;;;14.35;10.65;;;;;;;-0.94;82.43;100310.94;1813541;79;21096;-71
2020/12/27 08:29:21;;;;;;;12.47;9.33;;;;;;;-0.85;82.21;100314.53;1813922;79;21477;-70
2020/12/27 08:31:55;;;;;;;;;;;;;;;-0.75;82.09;100302.77;1816368;79;21462;-69
2020/12/27 08:34:24;;;;;;;16.42;11.75;;;;;;;-0.65;81.81;100303.38;1786535;79;20213;-69
2020/12/27 08:36:58;;;;;;;13.45;10.63;;;;;;;-0.58;81.53;100296.66;1813594;78;21536;-69
2020/12/27 08:39:40;;;;;;;13.93;10.88;;;;;;;-0.52;81.33;100289.11;1813595;79;21057;-72
2020/12/27 08:42:28;;;;;;;13.88;10.45;;;;;;;-0.51;81.08;100289.13;1813523;79;21069;-70
2020/12/27 08:45:04;;;;;;;16.75;10.72;;;;;;;-0.49;81.07;100289.16;1813569;78;21159;-69
2020/12/27 08:48:14;;;;;;;13.45;10.82;;;;;;;-0.43;80.96;100289.27;1813546;78;21096;-71
2020/12/27 08:50:42;;;;;;;14.63;10.63;;;;;;;-0.42;80.75;100289.71;1813349;79;21171;-71
2020/12/27 08:53:10;;;;;;;18.95;12.35;;;;;;;-0.41;80.76;100292.71;1813534;78;21065;-69
2020/12/27 08:55:38;;;;;;;19.70;13.30;;;;;;;-0.37;80.76;100289.34;1813584;78;21461;-69
2020/12/27 08:58:12;;;;;;;16.32;12.23;;;;;;;-0.31;80.77;100279.64;1784597;79;21498;-70
2020/12/27 09:00:39;;;;;;;16.30;12.07;;;;;;;-0.21;80.70;100288.77;1813727;78;20958;-70
2020/12/27 09:03:07;;;;;;;18.15;12.18;;;;;;;-0.16;80.42;100290.08;1813528;78;21482;-70
2020/12/27 09:05:35;;;;;;;19.62;13.75;;;;;;;-0.14;80.30;100289.69;1813430;78;21141;-70
2020/12/27 09:08:13;;;;;;;17.12;12.35;;;;;;;-0.11;80.41;100288.05;1813461;79;21117;-70
2020/12/27 09:10:40;;;;;;;19.12;12.75;;;;;;;-0.04;80.38;100290.28;1808677;78;21455;-70
2020/12/27 09:13:13;;;;;;;16.30;12.63;;;;;;;0.06;80.25;100288.70;1813512;79;20931;-70
2020/12/27 09:15:49;;;;;;;16.37;12.37;;;;;;;0.18;80.05;100281.20;1813829;79;21141;-70
2020/12/27 09:18:27;;;;;;;20.92;14.23;;;;;;;0.28;79.75;100281.75;1813494;77;21045;-69
2020/12/27 09:21:07;;;;;;;16.80;11.50;;;;;;;0.36;79.47;100278.88;1788746;79;21478;-69
2020/12/27 09:23:34;;;;;;;14.73;11.38;;;;;;;0.44;79.35;100278.53;1813600;79;22058;-71
2020/12/27 09:26:06;;;;;;;15.48;13.22;;;;;;;0.52;78.95;100279.50;1813463;79;21128;-70
2020/12/27 09:28:37;;;;;;;11.85;8.75;;;;;;;0.58;78.74;100278.72;1813534;78;21132;-70
2020/12/27 09:31:10;;;;;;;12.07;9.48;;;;;;;0.58;78.24;100278.30;1813403;79;21077;-70
2020/12/27 09:33:47;;;;;;;8.73;7.65;;;;;;;0.56;78.32;100285.52;1813853;78;21065;-70
2020/12/27 09:36:15;;;;;;;10.63;9.35;;;;;;;0.55;78.13;100283.80;1813631;78;22236;-69
2020/12/27 09:38:45;;;;;;;12.05;10.10;;;;;;;0.52;78.29;100277.36;1813435;79;21121;-70
2020/12/27 09:41:17;;;;;;;10.10;7.17;;;;;;;0.52;78.30;100276.94;1813652;79;21517;-70
2020/12/27 09:43:54;;;;;;;9.78;7.25;;;;;;;0.56;78.27;100268.46;1813326;78;21053;-71
2020/12/27 09:46:45;;;;;;;10.78;8.43;;;;;;;0.64;78.14;100263.41;1813556;78;21105;-70
2020/12/27 09:49:25;;;;;;;7.37;6.22;;;;;;;0.71;77.91;100260.50;1813518;79;21358;-70
2020/12/27 09:52:13;;;;;;;9.95;8.18;;;;;;;0.74;77.38;100263.96;1813434;78;21137;-70
2020/12/27 09:54:43;;;;;;;8.63;6.95;;;;;;;0.79;77.40;100268.72;1813510;78;21034;-70
2020/12/27 09:57:19;;;;;;;8.08;6.42;;;;;;;0.82;77.15;100257.20;1813340;78;21498;-70
2020/12/27 09:59:51;;;;;;;8.50;6.45;;;;;;;0.86;76.76;100264.08;1813130;78;21466;-73
2020/12/27 10:02:21;;;;;;;7.67;6.20;;;;;;;0.91;76.46;100264.99;1813479;78;21362;-71
2020/12/27 10:04:49;;;;;;;9.35;7.20;;;;;;;1.00;76.39;100252.67;1813430;79;21081;-70
2020/12/27 10:07:17;;;;;;;11.60;7.67;;;;;;;1.06;76.03;100255.31;1813477;79;21029;-68
2020/12/27 10:09:45;;;;;;;9.08;7.05;;;;;;;1.11;75.65;100261.34;1813461;79;21113;-70
2020/12/27 10:12:12;;;;;;;6.55;5.55;;;;;;;1.17;75.33;100252.44;1813456;79;21713;-70
2020/12/27 10:14:41;;;;;;;6.40;5.70;;;;;;;1.27;74.46;100245.67;1813473;79;21191;-70
2020/12/27 10:17:09;;;;;;;9.23;6.85;;;;;;;1.31;73.78;100254.69;1813342;77;21120;-71
2020/12/27 10:19:38;;;;;;;8.58;6.28;;;;;;;1.33;73.67;100255.98;1813480;78;21072;-70
2020/12/27 10:22:05;;;;;;;6.85;4.78;;;;;;;1.34;73.46;100244.89;1813452;78;21046;-70
2020/12/27 10:24:33;;;;;;;6.15;5.12;;;;;;;1.35;72.85;100254.30;1813439;79;21121;-70
2020/12/27 10:27:04;;;;;;;7.33;5.33;;;;;;;1.34;72.52;100252.16;1813451;79;21192;-71
2020/12/27 10:29:34;;;;;;;6.33;5.42;;;;;;;1.37;72.42;100250.05;1813412;79;21144;-71
2020/12/27 10:32:04;;;;;;;7.83;5.65;;;;;;;1.41;72.46;100249.20;1813461;78;21196;-71
2020/12/27 10:34:31;;;;;;;5.33;4.47;;;;;;;1.45;72.51;100243.25;1813544;78;21189;-72
2020/12/27 10:37:00;;;;;;;6.20;5.10;;;;;;;1.51;72.24;100243.73;1813567;78;21477;-69
2020/12/27 10:39:27;;;;;;;6.17;4.85;;;;;;;1.56;71.99;100238.22;1813456;78;21351;-70
2020/12/27 10:41:56;;;;;;;7.00;4.60;;;;;;;1.55;71.54;100228.81;1813389;79;21073;-71
2020/12/27 10:44:24;;;;;;;10.08;5.30;;;;;;;1.55;71.54;100223.27;1813355;79;21512;-70
2020/12/27 10:46:53;;;;;;;9.38;5.35;;;;;;;1.59;71.38;100220.30;1813477;78;21584;-70
2020/12/27 10:49:23;;;;;;;7.65;4.90;;;;;;;1.60;71.09;100212.59;1813471;78;21147;-70
2020/12/27 10:51:50;;;;;;;8.33;5.35;;;;;;;1.60;71.17;100220.28;1813560;78;22251;-69
2020/12/27 10:54:18;;;;;;;9.33;5.15;;;;;;;1.63;71.09;100211.33;1813346;79;21065;-70
2020/12/27 10:56:46;;;;;;;9.33;5.15;;;;;;;1.62;70.47;100212.17;1813434;78;21131;-70
2020/12/27 10:59:14;;;;;;;10.75;4.40;;;;;;;1.60;70.13;100221.56;1813418;79;21108;-70
2020/12/27 11:01:46;;;;;;;6.08;4.80;;;;;;;1.59;69.73;100211.33;1813434;78;21137;-70
2020/12/27 11:04:14;;;;;;;7.97;4.20;;;;;;;1.58;69.38;100218.16;1813388;78;22216;-69
2020/12/27 11:06:41;;;;;;;10.65;4.65;;;;;;;1.58;69.21;100216.87;1813357;78;21140;-69
2020/12/27 11:09:10;;;;;;;9.28;4.40;;;;;;;1.60;69.18;100220.73;1813483;78;21636;-71
2020/12/27 11:11:39;;;;;;;5.58;4.17;;;;;;;1.58;68.89;100218.16;1813416;78;21061;-71
2020/12/27 11:14:07;;;;;;;13.38;5.40;;;;;;;1.57;69.07;100218.14;1813478;78;21073;-70
2020/12/27 11:16:35;;;;;;;13.60;7.97;;;;;;;1.59;69.37;100226.71;1813390;79;21497;-70
2020/12/27 11:19:03;;;;;;;14.07;7.03;;;;;;;1.63;69.01;100219.02;1813274;77;21137;-71
2020/12/27 11:21:32;;;;;;;7.80;5.75;;;;;;;1.68;69.04;100210.08;1813417;78;21665;-69
2020/12/27 11:24:00;;;;;;;7.50;4.30;;;;;;;1.69;68.91;100213.94;1813379;79;21471;-70
2020/12/27 11:26:28;;;;;;;24.10;6.70;;;;;;;1.66;68.40;100204.94;1813455;78;21049;-71
2020/12/27 11:28:55;;;;;;;13.83;7.03;;;;;;;1.66;67.99;100206.65;1813507;78;21354;-70
2020/12/27 11:31:23;;;;;;;10.45;5.85;;;;;;;1.64;67.89;100205.36;1813579;79;21577;-70
2020/12/27 11:33:51;;;;;;;32.95;5.85;;;;;;;1.62;68.12;100212.17;1813541;79;21141;-72
2020/12/27 11:36:19;;;;;;;12.20;5.75;;;;;;;1.60;67.85;100205.35;1813600;79;21132;-72
2020/12/27 11:38:47;;;;;;;24.10;6.05;;;;;;;1.58;67.72;100200.22;1813650;78;21553;-71
2020/12/27 11:41:15;;;;;;;16.73;6.60;;;;;;;1.58;67.77;100203.20;1813705;78;21120;-70
2020/12/27 11:43:43;;;;;;;23.32;7.20;;;;;;;1.57;68.15;100197.22;1813362;79;21224;-71
2020/12/27 11:46:13;;;;;;;26.85;7.72;;;;;;;1.58;68.43;100200.64;1813631;79;21140;-69
2020/12/27 11:48:41;;;;;;;11.28;6.15;;;;;;;1.62;68.65;100203.63;1813564;78;21561;-70
2020/12/27 11:51:08;;;;;;;14.25;6.37;;;;;;;1.64;68.89;100210.48;1813631;79;21057;-70
2020/12/27 11:53:38;;;;;;;27.60;7.58;;;;;;;1.64;68.96;100210.48;1810752;79;21189;-70
2020/12/27 11:56:05;;;;;;;7.08;6.03;;;;;;;1.62;69.13;100203.63;1813526;79;21517;-70
2020/12/27 11:58:33;;;;;;;11.10;6.78;;;;;;;1.59;69.16;100194.23;1813550;79;21541;-71
2020/12/27 12:01:02;;;;;;;19.15;8.93;;;;;;;1.58;69.33;100204.06;1813543;79;21131;-70
2020/12/27 12:03:29;;;;;;;22.80;7.67;;;;;;;1.54;69.53;100201.03;1813558;79;21511;-70
2020/12/27 12:05:57;;;;;;;8.60;6.62;;;;;;;1.51;69.54;100197.16;1813540;79;21383;-70
2020/12/27 12:08:25;;;;;;;25.30;8.20;;;;;;;1.46;69.39;100199.25;1813508;78;21136;-70
2020/12/27 12:10:53;;;;;;;20.45;7.83;;;;;;;1.44;69.71;100192.83;1813535;78;21560;-70
2020/12/27 12:13:21;;;;;;;10.28;7.85;;;;;;;1.41;70.18;100186.40;1813516;79;21148;-70
2020/12/27 12:15:49;;;;;;;21.48;8.45;;;;;;;1.35;70.72;100187.23;1813556;78;21057;-70
2020/12/27 12:18:17;;;;;;;25.27;10.43;;;;;;;1.28;71.04;100185.47;1813544;77;21423;-69
2020/12/27 12:23:22;;;;;;;13.78;8.95;;;;;;;1.28;71.43;100183.33;1890030;75;22742;-70
2020/12/27 12:25:50;;;;;;;33.58;11.83;;;;;;;1.23;71.50;100182.42;1861033;77;20863;-70
2020/12/27 12:28:17;;;;;;;18.55;8.83;;;;;;;1.20;71.71;100193.50;1860938;77;21364;-71
2020/12/27 12:30:45;;;;;;;28.70;10.18;;;;;;;1.19;71.36;100190.96;1860818;77;20934;-71
2020/12/27 12:33:13;;;;;;;20.32;6.92;;;;;;;1.17;71.40;100187.10;1860941;77;21041;-69
2020/12/27 12:35:41;;;;;;;21.23;7.67;;;;;;;1.15;71.36;100174.70;1860912;77;21041;-69
2020/12/27 12:38:10;;;;;;;28.45;7.53;;;;;;;1.12;71.02;100176.37;1860946;77;20914;-69
2020/12/27 12:40:38;;;;;;;20.30;8.38;;;;;;;1.07;70.92;100175.05;1860884;77;22783;-71
2020/12/27 12:43:06;;;;;;;16.55;8.60;;;;;;;1.03;71.00;100170.32;1860919;77;21079;-69
2020/12/27 12:45:34;;;;;;;18.87;9.30;;;;;;;1.01;71.07;100162.19;1860916;77;21482;-69
2020/12/27 12:48:02;;;;;;;15.40;7.20;;;;;;;1.00;71.07;100157.48;1860952;77;21478;-68
2020/12/27 12:50:29;;;;;;;32.05;9.10;;;;;;;1.03;71.10;100157.52;1860925;77;21045;-70
2020/12/27 12:52:57;;;;;;;17.65;9.93;;;;;;;1.06;71.09;100149.42;1860860;77;22359;-70
2020/12/27 12:55:24;;;;;;;24.82;10.30;;;;;;;1.06;71.13;100147.72;1860848;77;21140;-70
2020/12/27 12:57:52;;;;;;;27.50;10.50;;;;;;;1.03;71.26;100145.98;1860888;77;21025;-70
2020/12/27 13:00:20;;;;;;;30.68;10.55;;;;;;;1.03;71.43;100141.28;1860903;77;21029;-70
2020/12/27 13:02:48;;;;;;;27.65;12.07;;;;;;;1.00;71.63;100138.27;1860866;77;21088;-70
2020/12/27 13:05:16;;;;;;;31.33;12.28;;;;;;;0.98;71.80;100136.15;1860895;77;21276;-70
2020/12/27 13:07:44;;;;;;;24.12;10.43;;;;;;;0.94;71.85;100139.53;1860806;77;21143;-70
2020/12/27 13:10:13;;;;;;;26.37;10.88;;;;;;;0.91;71.96;100140.78;1860861;77;21045;-70
2020/12/27 13:12:42;;;;;;;20.68;8.75;;;;;;;0.91;71.98;100143.34;1860305;77;21045;-69
2020/12/27 13:15:10;;;;;;;23.10;9.00;;;;;;;0.89;72.02;100156.55;1860909;77;21029;-68
2020/12/27 13:17:38;;;;;;;42.73;18.17;;;;;;;0.86;72.09;100156.94;1865694;76;21636;-69
2020/12/27 13:20:07;;;;;;;30.85;13.22;;;;;;;0.82;72.22;100152.63;1881536;76;21115;-69
2020/12/27 13:22:35;;;;;;;32.42;13.35;;;;;;;0.76;72.29;100156.45;1806831;79;21623;-69
2020/12/27 13:25:04;;;;;;;32.60;12.40;;;;;;;0.73;72.20;100159.83;1822800;78;21072;-69
2020/12/27 13:27:31;;;;;;;30.70;14.98;;;;;;;0.71;72.13;100164.08;1807078;79;21048;-71
2020/12/27 13:29:59;;;;;;;23.00;13.80;;;;;;;0.68;72.13;100166.18;1822804;78;21366;-70
2020/12/27 13:32:26;;;;;;;27.27;14.13;;;;;;;0.66;72.12;100166.58;1822793;78;21568;-70
2020/12/27 13:34:54;;;;;;;43.48;14.55;;;;;;;0.63;72.11;100172.95;1822184;78;21726;-70
2020/12/27 13:37:22;;;;;;;64.97;17.85;;;;;;;0.60;72.27;100167.80;1806482;79;21496;-70
2020/12/27 13:39:49;;;;;;;36.40;16.30;;;;;;;0.57;72.26;100154.99;1822223;78;21048;-70
2020/12/27 13:42:17;;;;;;;26.60;14.03;;;;;;;0.55;72.14;100156.67;1822171;78;21201;-70
2020/12/27 13:44:46;;;;;;;44.55;14.68;;;;;;;0.50;72.08;100160.02;1806355;79;21143;-70
2020/12/27 13:47:14;;;;;;;42.83;14.55;;;;;;;0.43;72.11;100151.42;1822171;78;21142;-70
2020/12/27 13:49:42;;;;;;;32.70;14.63;;;;;;;0.36;72.16;100156.05;1806366;79;21063;-70
2020/12/27 13:52:10;;;;;;;29.27;15.18;;;;;;;0.32;72.37;100151.74;1822032;78;21040;-70
2020/12/27 13:54:38;;;;;;;53.78;15.50;;;;;;;0.27;72.43;100153.38;1806342;79;21376;-70
2020/12/27 13:57:05;;;;;;;27.27;10.40;;;;;;;0.21;72.59;100145.21;1822132;78;21147;-70
2020/12/27 13:59:33;;;;;;;18.05;9.63;;;;;;;0.14;72.73;100144.73;1822144;78;21032;-70
2020/12/27 14:02:01;;;;;;;19.95;11.03;;;;;;;0.06;72.86;100141.63;1806476;79;21123;-69
2020/12/27 14:04:29;;;;;;;21.68;9.15;;;;;;;-0.01;73.00;100147.12;1822171;78;21131;-70
2020/12/27 14:06:58;;;;;;;33.00;11.22;;;;;;;-0.07;73.25;100147.03;1806476;79;22363;-70
2020/12/27 14:09:27;;;;;;;28.55;14.23;;;;;;;-0.12;73.45;100147.39;1822080;78;21156;-70
2020/12/27 14:11:55;;;;;;;27.75;12.85;;;;;;;-0.19;73.58;100143.89;1806428;78;21568;-70
2020/12/27 14:14:22;;;;;;;19.02;10.48;;;;;;;-0.25;73.74;100142.56;1822114;78;21784;-70
2020/12/27 14:16:50;;;;;;;20.82;12.03;;;;;;;-0.31;73.91;100143.75;1806449;79;21045;-69
2020/12/27 14:19:18;;;;;;;20.60;10.98;;;;;;;-0.36;74.16;100152.63;1822091;78;21204;-70
2020/12/27 14:21:46;;;;;;;20.45;11.70;;;;;;;-0.39;74.39;100153.00;1821787;78;21143;-70
2020/12/27 14:24:14;;;;;;;18.73;10.50;;;;;;;-0.42;74.51;100155.54;1796293;79;21030;-70
2020/12/27 14:26:42;;;;;;;20.68;12.33;;;;;;;-0.49;74.71;100148.20;1810894;79;21075;-70
2020/12/27 14:29:09;;;;;;;25.72;14.18;;;;;;;-0.53;74.96;100142.59;1796273;79;21090;-70
2020/12/27 14:31:37;;;;;;;23.42;13.18;;;;;;;-0.57;75.19;100143.80;1811055;79;21556;-70
2020/12/27 14:34:05;;;;;;;26.30;14.00;;;;;;;-0.61;75.36;100147.18;1796193;79;21118;-70
2020/12/27 14:36:33;;;;;;;22.67;12.88;;;;;;;-0.63;75.60;100153.96;1810960;79;21032;-70
2020/12/27 14:39:01;;;;;;;21.77;10.85;;;;;;;-0.68;75.80;100153.89;1796240;79;21050;-70
2020/12/27 14:41:28;;;;;;;16.67;11.70;;;;;;;-0.70;75.91;100166.64;1810930;79;21103;-70
2020/12/27 14:43:56;;;;;;;31.17;15.18;;;;;;;-0.73;76.09;100161.89;1796255;79;21507;-70
2020/12/27 14:46:23;;;;;;;26.12;13.98;;;;;;;-0.75;76.31;100164.84;1810945;79;21496;-70
2020/12/27 14:48:51;;;;;;;29.25;18.05;;;;;;;-0.77;76.55;100159.70;1796291;79;21043;-70
2020/12/27 14:51:21;;;;;;;26.97;14.25;;;;;;;-0.78;76.74;100155.43;1810956;79;21085;-70
2020/12/27 14:53:51;;;;;;;24.50;10.30;;;;;;;-0.77;76.97;100155.02;1796215;79;21097;-70
2020/12/27 14:56:19;;;;;;;22.42;10.05;;;;;;;-0.77;76.89;100152.04;1811018;79;22315;-70
2020/12/27 14:58:47;;;;;;;23.67;10.35;;;;;;;-0.80;76.95;100151.99;1796165;79;21101;-68
2020/12/27 15:01:16;;;;;;;19.50;10.68;;;;;;;-0.82;77.06;100162.63;1810949;79;21111;-70
2020/12/27 15:03:44;;;;;;;23.62;13.38;;;;;;;-0.84;77.13;100154.09;1796202;78;21144;-70
2020/12/27 15:06:12;;;;;;;27.40;16.10;;;;;;;-0.89;76.98;100154.42;1810956;79;21652;-68
2020/12/27 15:08:41;;;;;;;20.10;14.10;;;;;;;-0.94;77.05;100153.48;1745752;79;21519;-69
2020/12/27 15:11:09;;;;;;;29.25;15.88;;;;;;;-0.99;77.05;100147.44;1810926;79;21063;-69
2020/12/27 15:13:37;;;;;;;31.65;15.85;;;;;;;-1.01;77.06;100150.83;1796202;79;21126;-69
2020/12/27 15:16:05;;;;;;;24.95;12.93;;;;;;;-1.06;77.07;100141.40;1810926;79;21107;-70
2020/12/27 15:18:33;;;;;;;44.98;14.95;;;;;;;-1.08;77.09;100139.66;1796191;79;21027;-70
2020/12/27 15:21:01;;;;;;;30.05;14.83;;;;;;;-1.10;77.16;100134.52;1810879;79;21202;-71
2020/12/27 15:23:29;;;;;;;26.40;13.50;;;;;;;-1.14;77.10;100128.06;1804355;79;21982;-69
2020/12/27 15:25:57;;;;;;;28.80;12.78;;;;;;;-1.18;77.16;100125.87;1822121;78;21099;-70
2020/12/27 15:28:25;;;;;;;42.20;16.02;;;;;;;-1.22;77.19;100125.41;1822116;78;21183;-70
2020/12/27 15:30:53;;;;;;;34.48;16.30;;;;;;;-1.25;77.29;100118.11;1822258;78;21051;-70
2020/12/27 15:33:20;;;;;;;30.35;13.43;;;;;;;-1.28;77.32;100121.47;1822104;78;21201;-70
2020/12/27 15:35:49;;;;;;;26.37;13.70;;;;;;;-1.31;77.51;100118.86;1809428;79;21060;-71
2020/12/27 15:38:17;;;;;;;22.50;11.12;;;;;;;-1.35;77.60;100109.42;1822108;78;21154;-70
2020/12/27 15:40:44;;;;;;;19.02;7.90;;;;;;;-1.37;77.67;100106.41;1809585;79;21594;-70
2020/12/27 15:43:12;;;;;;;19.65;8.75;;;;;;;-1.39;77.76;100110.20;1822094;78;21044;-70
2020/12/27 15:45:40;;;;;;;23.80;10.48;;;;;;;-1.42;77.76;100114.87;1822163;78;22377;-70
2020/12/27 15:48:07;;;;;;;20.70;11.48;;;;;;;-1.44;77.87;100112.70;1809422;79;21123;-71
2020/12/27 15:50:35;;;;;;;12.05;7.70;;;;;;;-1.45;78.00;100112.26;1822094;78;21126;-70
2020/12/27 15:53:03;;;;;;;16.60;8.13;;;;;;;-1.47;78.07;100108.82;1822113;78;21492;-68
2020/12/27 15:55:31;;;;;;;24.45;9.45;;;;;;;-1.48;78.09;100115.17;1822139;78;21043;-71
2020/12/27 15:57:59;;;;;;;14.40;6.97;;;;;;;-1.51;78.22;100111.28;1809486;79;22886;-68
2020/12/27 16:00:27;;;;;;;15.25;7.67;;;;;;;-1.52;78.37;100100.22;1821997;78;21016;-69
2020/12/27 16:02:55;;;;;;;12.90;7.28;;;;;;;-1.52;78.48;100096.81;1822112;78;21611;-70
2020/12/27 16:05:25;;;;;;;22.17;10.78;;;;;;;-1.54;78.56;100093.38;1809488;79;21072;-69
2020/12/27 16:07:52;;;;;;;18.92;9.55;;;;;;;-1.56;78.56;100089.52;1822166;78;21059;-70
2020/12/27 16:10:20;;;;;;;21.62;10.90;;;;;;;-1.57;78.52;100089.48;1809504;79;21276;-69
2020/12/27 16:12:48;;;;;;;20.27;8.70;;;;;;;-1.60;78.66;100086.91;1822007;78;21131;-69
2020/12/27 16:15:16;;;;;;;22.52;10.13;;;;;;;-1.61;78.79;100082.64;1822050;78;21098;-69